Briefing drone pour Belleville

Rechercher une autre localisation

Conditions de vol :


Nous sommes le : Vendredi 28 février 2020
Il est 23:49 UTC (00:49 LT)

Lever de soleil : 05:53 UTC (06:53 LT)
Coucher de soleil : 17:42 UTC (18:42 LT)

Météo

L'essentiel des conditions de vol

VIGILANCE MÉTÉO FRANCE - Meurthe-et-Moselle (54)
Vigilance Jaune : Vent violent / Neige-verglas
CARTE TEMSI
CARTES DES FRONTS
METAR de LFSN
LFSN 272330Z AUTO 28011KT 9999 FEW017 03/M00 Q1015

Date d'émission: 27/02/2020
Heure d'émission: 23:30 UTC
Vent: 280° pour 11 KT (20 km/h)
Visibilité horizontale: > 10 km
Plafond :
- Peu de nuages à 1700ft (518m)
Température: 3 °C
Point de rosée: 0 °C
Humidité: 81%
Pression (QNH): 1015 hPa
TAF de LFSN
LFSN 141600Z 1416/1512 CNL

Conditions prévues :

Heure d'émission : Bulletin éffectué le 14 à 16:00 UTC
Prévision : Valide du 14 a 16:00 UTC au 15 a 12:00 UTC
Nuages : à 0ft (0 m)
WEBCAM POUR BELLEVILLE

Réglementation

Voler en sécurité

CARTES AERONAUTIQUE 1/500.000
CARTES VAC (LFSN)
SUP AIP




Chargement des AIP...
NOTAM (BELLEVILLE + Terrain à proximité / FIR )




Chargement des NOTAMS...
CONTACT PREFECTURE 54


Avertissement : Les données mises à disposition sont indicatives. Oxygène Drone ne pourra être tenu responsable de dégâts causés aux biens et aux personnes.